Time;durP1;ratioP1;P1;durP2;ratioP2;P2;SDS_P1;SDS_P2;PMS_P1;PMS_P2;Temp;Humidity;BMP_temperature;BMP_pressure;BME280_temperature;BME280_humidity;BME280_pressure;Samples;Min_cycle;Max_cycle;Signal;HPM_P1;HPM_P2
2022/06/07 00:01:04;;;;;;;4.53;3.00;;;;;;;-145.69;100.00;71326.78;5094047;28;20259;-83
2022/06/07 00:03:31;;;;;;;5.35;3.53;;;;;;;-145.69;100.00;71324.78;5094457;28;20633;-83
2022/06/07 00:05:57;;;;;;;4.03;3.00;;;;;;;-145.69;100.00;71330.75;5094859;28;20255;-83
2022/06/07 00:08:26;;;;;;;7.05;3.58;;;;;;;-145.69;100.00;71336.72;5094408;28;20201;-83
2022/06/07 00:10:52;;;;;;;5.47;3.80;;;;;;;-145.69;100.00;71340.72;5094300;28;20239;-83
2022/06/07 00:13:19;;;;;;;8.88;3.90;;;;;;;-145.69;100.00;71344.69;5094386;28;20267;-83
2022/06/07 00:15:46;;;;;;;7.90;4.18;;;;;;;-145.69;100.00;71348.66;5094327;28;20252;-82
2022/06/07 00:18:13;;;;;;;6.82;4.32;;;;;;;-145.69;100.00;71352.66;5094399;28;20229;-83
2022/06/07 00:20:41;;;;;;;5.38;3.88;;;;;;;-145.69;100.00;71352.66;5094224;28;20202;-82
2022/06/07 00:23:10;;;;;;;4.90;3.30;;;;;;;-145.69;100.00;71370.56;5094439;28;20194;-82
2022/06/07 00:25:38;;;;;;;6.93;3.22;;;;;;;-145.69;100.00;71384.47;5094628;28;20221;-82
2022/06/07 00:28:07;;;;;;;4.15;2.53;;;;;;;-145.69;100.00;71398.41;5093942;28;20422;-81
2022/06/07 00:30:34;;;;;;;5.72;2.90;;;;;;;-145.69;100.00;71406.38;5094003;28;20198;-82
2022/06/07 00:33:04;;;;;;;7.03;3.30;;;;;;;-145.69;100.00;71416.31;5092416;28;20649;-82
2022/06/07 00:35:31;;;;;;;4.40;3.20;;;;;;;-145.69;100.00;71416.31;5074923;28;20198;-81
2022/06/07 00:37:57;;;;;;;6.55;3.72;;;;;;;-145.69;100.00;71428.25;5074104;28;20237;-82
2022/06/07 00:40:24;;;;;;;7.43;3.35;;;;;;;-145.69;100.00;71442.19;5074026;28;20199;-80
2022/06/07 00:42:51;;;;;;;5.43;3.25;;;;;;;-145.69;100.00;71442.19;5073624;28;20226;-80
2022/06/07 00:45:20;;;;;;;5.60;3.67;;;;;;;-145.69;100.00;71450.16;5073772;28;20214;-81
2022/06/07 00:47:47;;;;;;;4.55;3.45;;;;;;;-145.69;100.00;71446.16;5073800;28;20215;-80
2022/06/07 00:50:23;;;;;;;5.10;3.60;;;;;;;-145.69;100.00;71448.16;5073700;28;20238;-80
2022/06/07 00:52:50;;;;;;;7.00;3.90;;;;;;;-145.69;100.00;71434.22;5073689;28;20210;-80
2022/06/07 00:55:17;;;;;;;8.45;3.47;;;;;;;-145.69;100.00;71446.16;5073470;28;20562;-80
2022/06/07 00:57:43;;;;;;;10.18;3.60;;;;;;;-145.69;100.00;71452.16;5073577;28;20279;-81
2022/06/07 01:00:15;;;;;;;7.20;3.78;;;;;;;-145.69;100.00;71452.16;5073263;28;20695;-80
2022/06/07 01:02:41;;;;;;;6.88;4.85;;;;;;;-145.69;100.00;71430.25;5072285;28;20438;-81
2022/06/07 01:05:08;;;;;;;4.60;3.65;;;;;;;-145.69;100.00;71430.25;5073568;28;20249;-81
2022/06/07 01:13:05;;;;;;;4.70;3.60;;;;;;;-145.69;100.00;71446.16;5093442;28;20220;-81
2022/06/07 01:15:33;;;;;;;6.32;3.38;;;;;;;-145.69;100.00;71438.22;5093362;28;20678;-80
2022/06/07 01:18:00;;;;;;;4.72;3.72;;;;;;;-145.69;100.00;71430.25;5093397;28;20221;-80
2022/06/07 01:23:49;;;;;;;7.97;3.88;;;;;;;-145.69;100.00;71418.31;5090852;28;20281;-80
2022/06/07 01:26:16;;;;;;;3.83;3.30;;;;;;;-145.69;100.00;71418.31;5093947;28;20205;-80
2022/06/07 01:28:43;;;;;;;6.25;3.92;;;;;;;-145.69;100.00;71406.38;5093488;28;20542;-81
2022/06/07 01:31:10;;;;;;;7.75;4.43;;;;;;;-145.69;100.00;71406.38;5093173;28;20691;-81
2022/06/07 01:33:38;;;;;;;8.52;4.65;;;;;;;-145.69;100.00;71406.38;5093268;28;20206;-81
2022/06/07 01:36:08;;;;;;;8.98;4.70;;;;;;;-145.69;100.00;71412.34;5093349;28;20205;-80
2022/06/07 01:38:37;;;;;;;6.00;4.65;;;;;;;-145.69;100.00;71414.34;5093012;28;20627;-80
2022/06/07 01:43:50;;;;;;;8.32;4.88;;;;;;;-145.69;100.00;71412.34;5093181;28;20201;-80
2022/06/07 01:46:17;;;;;;;7.17;4.43;;;;;;;-145.69;100.00;71408.38;5093190;28;20205;-80
2022/06/07 01:48:46;;;;;;;7.30;5.47;;;;;;;-145.69;100.00;71412.34;5093002;28;20202;-80
2022/06/07 01:51:13;;;;;;;7.67;5.50;;;;;;;-145.69;100.00;71402.41;5093295;28;20216;-79
2022/06/07 01:53:40;;;;;;;6.40;4.63;;;;;;;-145.69;100.00;71404.38;5093225;28;20247;-80
2022/06/07 01:56:10;;;;;;;7.93;5.90;;;;;;;-145.69;100.00;71402.41;5092955;28;20790;-80
2022/06/07 01:58:38;;;;;;;8.60;5.43;;;;;;;-145.69;100.00;71398.41;5092924;28;20308;-80
2022/06/07 02:01:05;;;;;;;9.87;5.20;;;;;;;-145.69;100.00;71406.38;5093056;28;20215;-79
2022/06/07 02:03:32;;;;;;;9.60;5.70;;;;;;;-145.69;100.00;71408.38;5092867;28;20198;-80
2022/06/07 02:06:01;;;;;;;10.07;5.43;;;;;;;-145.69;100.00;71410.34;5093026;28;20289;-80
2022/06/07 02:08:28;;;;;;;8.00;5.63;;;;;;;-145.69;100.00;71408.38;5092835;28;20293;-80
2022/06/07 02:10:55;;;;;;;9.00;7.00;;;;;;;-145.69;100.00;71402.41;5091667;28;20428;-80
2022/06/07 02:13:24;;;;;;;10.27;5.90;;;;;;;-145.69;100.00;71394.44;5092849;28;20751;-80
2022/06/07 02:15:50;;;;;;;8.95;5.57;;;;;;;-145.69;100.00;71386.47;5092822;28;20201;-79
2022/06/07 02:18:17;;;;;;;8.65;5.43;;;;;;;-145.69;100.00;71382.50;5092914;28;20607;-79
2022/06/07 02:20:44;;;;;;;8.93;5.40;;;;;;;-145.69;100.00;71378.50;5093000;28;20202;-80
2022/06/07 02:23:10;;;;;;;10.07;5.00;;;;;;;-145.69;100.00;71382.50;5092778;28;20198;-80
2022/06/07 02:25:42;;;;;;;8.73;4.60;;;;;;;-145.69;100.00;71382.50;5083528;28;20199;-80
2022/06/07 02:28:09;;;;;;;5.93;4.20;;;;;;;-145.69;100.00;71372.53;5076406;28;20203;-80
2022/06/07 02:30:41;;;;;;;6.82;4.40;;;;;;;-145.69;100.00;71370.56;5076238;28;20202;-80
2022/06/07 02:33:08;;;;;;;7.80;5.10;;;;;;;-145.69;100.00;71358.63;5076090;28;20671;-80
2022/06/07 02:35:38;;;;;;;8.75;5.50;;;;;;;-145.69;100.00;71362.59;5075766;28;20245;-80
2022/06/07 02:38:05;;;;;;;8.27;4.97;;;;;;;-145.69;100.00;71362.59;5075824;28;20237;-80
2022/06/07 02:40:33;;;;;;;9.13;5.15;;;;;;;-145.69;100.00;71364.59;5075990;28;20199;-80
2022/06/07 02:43:00;;;;;;;9.17;4.63;;;;;;;-145.69;100.00;71366.56;5075895;28;20213;-80
2022/06/07 02:45:30;;;;;;;7.97;5.80;;;;;;;-145.69;100.00;71368.56;5074758;28;20795;-80
2022/06/07 02:47:58;;;;;;;8.30;4.53;;;;;;;-145.69;100.00;71368.56;5075997;28;20649;-79
2022/06/07 02:50:26;;;;;;;6.05;4.32;;;;;;;-145.69;100.00;71362.59;5076059;28;20206;-80
2022/06/07 02:52:53;;;;;;;6.82;4.20;;;;;;;-145.69;100.00;71370.56;5075805;28;20241;-79
2022/06/07 02:55:20;;;;;;;7.68;4.28;;;;;;;-145.69;100.00;71366.56;5075852;28;20194;-80
2022/06/07 02:57:46;;;;;;;6.60;4.22;;;;;;;-145.69;100.00;71366.56;5075636;28;20198;-80
2022/06/07 03:00:16;;;;;;;7.40;4.00;;;;;;;-145.69;100.00;71366.56;5075912;28;20234;-80
2022/06/07 03:02:45;;;;;;;7.22;4.20;;;;;;;-145.69;100.00;71370.56;5075720;28;20206;-80
2022/06/07 03:05:13;;;;;;;5.20;4.07;;;;;;;-145.69;100.00;71370.56;5075603;28;20676;-79
2022/06/07 03:07:40;;;;;;;6.78;3.58;;;;;;;-145.69;100.00;71374.53;5075605;28;20210;-79
2022/06/07 03:10:08;;;;;;;7.50;3.83;;;;;;;-145.69;100.00;71378.50;5077329;28;20199;-80
2022/06/07 03:12:35;;;;;;;4.47;3.80;;;;;;;-145.69;100.00;71376.53;5095895;28;20208;-79
2022/06/07 03:15:02;;;;;;;6.25;3.70;;;;;;;-145.69;100.00;71374.53;5095790;28;20285;-80
2022/06/07 03:17:31;;;;;;;6.05;3.70;;;;;;;-145.69;100.00;71378.50;5095579;28;20202;-79
2022/06/07 03:19:57;;;;;;;6.18;4.65;;;;;;;-145.69;100.00;71380.50;5094685;28;20460;-79
2022/06/07 03:22:25;;;;;;;7.20;4.32;;;;;;;-145.69;100.00;71378.50;5095284;28;20205;-79
2022/06/07 03:24:52;;;;;;;4.18;3.28;;;;;;;-145.69;100.00;71378.50;5095487;28;20198;-80
2022/06/07 03:27:18;;;;;;;4.20;3.53;;;;;;;-145.69;100.00;71382.50;5095584;28;20285;-80
2022/06/07 03:29:45;;;;;;;6.28;3.55;;;;;;;-145.69;100.00;71390.47;5095476;28;20205;-80
2022/06/07 03:32:11;;;;;;;4.87;3.23;;;;;;;-145.69;100.00;71386.47;5095455;28;20193;-79
2022/06/07 03:34:38;;;;;;;11.57;4.40;;;;;;;-145.69;100.00;71386.47;5095041;28;20659;-79
2022/06/07 03:37:05;;;;;;;5.18;3.58;;;;;;;-145.69;100.00;71388.47;5094994;28;20253;-79
2022/06/07 03:39:33;;;;;;;5.97;3.63;;;;;;;-145.69;100.00;71386.47;5095454;28;20283;-79
2022/06/07 03:41:59;;;;;;;7.22;3.47;;;;;;;-145.69;100.00;71384.47;5095343;28;20277;-80
2022/06/07 03:44:31;;;;;;;4.53;3.10;;;;;;;-145.69;100.00;71384.47;5095065;28;20260;-80
2022/06/07 03:46:57;;;;;;;7.13;4.07;;;;;;;-145.69;100.00;71382.50;5095028;28;20285;-80
2022/06/07 03:49:25;;;;;;;6.20;3.45;;;;;;;-145.69;100.00;71386.47;5094972;28;20194;-80
2022/06/07 03:51:52;;;;;;;5.53;3.58;;;;;;;-145.69;100.00;71386.47;5094756;28;20198;-79
2022/06/07 03:54:19;;;;;;;5.05;3.58;;;;;;;-145.69;100.00;71386.47;5094928;28;20217;-80
2022/06/07 03:56:52;;;;;;;5.17;3.20;;;;;;;-145.69;100.00;71390.47;5094808;28;20198;-80
2022/06/07 03:59:21;;;;;;;2.92;2.63;;;;;;;-145.69;100.00;71400.41;5094921;28;20226;-79
2022/06/07 04:01:50;;;;;;;4.45;2.70;;;;;;;-145.69;100.00;71396.44;5094604;28;20198;-79
2022/06/07 04:04:17;;;;;;;2.45;2.25;;;;;;;-145.69;100.00;71396.44;5094696;28;20198;-80
2022/06/07 04:09:29;;;;;;;4.00;2.70;;;;;;;-145.69;100.00;71402.41;5094575;28;20193;-79
2022/06/07 04:11:57;;;;;;;3.33;2.80;;;;;;;-145.69;100.00;71408.38;5094589;28;20198;-79
2022/06/07 04:14:24;;;;;;;5.47;2.70;;;;;;;-145.69;100.00;71408.38;5094479;28;20331;-79
2022/06/07 04:16:53;;;;;;;5.10;3.00;;;;;;;-145.69;100.00;71422.28;5094326;28;20274;-80
2022/06/07 04:19:19;;;;;;;5.80;2.70;;;;;;;-145.69;100.00;71426.28;5084289;28;20219;-79
2022/06/07 04:21:49;;;;;;;4.83;2.50;;;;;;;-145.69;100.00;71430.25;5074443;28;20202;-79
2022/06/07 04:24:16;;;;;;;4.10;2.90;;;;;;;-145.69;100.00;71438.22;5074213;28;20202;-79
2022/06/07 04:26:42;;;;;;;3.53;2.70;;;;;;;-145.69;100.00;71436.22;5073680;28;20194;-79
2022/06/07 04:29:13;;;;;;;5.32;3.33;;;;;;;-145.69;100.00;71432.25;5071867;28;20496;-79
2022/06/07 04:31:39;;;;;;;4.28;3.10;;;;;;;-145.69;100.00;71424.28;5074097;28;20206;-79
2022/06/07 04:34:06;;;;;;;5.43;2.83;;;;;;;-145.69;100.00;71418.31;5073635;28;20195;-79
2022/06/07 04:36:34;;;;;;;5.30;2.97;;;;;;;-145.69;100.00;71418.31;5073760;28;20199;-79
2022/06/07 04:39:05;;;;;;;7.77;2.80;;;;;;;-145.69;100.00;71430.25;5073648;28;20231;-79
2022/06/07 04:41:34;;;;;;;5.15;2.90;;;;;;;-145.69;100.00;71438.22;5073790;28;20209;-79
2022/06/07 04:44:00;;;;;;;6.70;3.27;;;;;;;-145.69;100.00;71428.25;5073625;28;20199;-79
2022/06/07 04:46:29;;;;;;;5.33;3.70;;;;;;;-145.69;100.00;71438.22;5073183;28;20535;-79
2022/06/07 04:48:56;;;;;;;4.07;3.27;;;;;;;-145.69;100.00;71434.22;5073532;28;20802;-79
2022/06/07 04:51:27;;;;;;;4.73;3.73;;;;;;;-145.69;100.00;71434.22;5073696;28;20615;-80
2022/06/07 04:53:59;;;;;;;5.13;4.10;;;;;;;-145.69;100.00;71424.28;5073326;28;20688;-80
2022/06/07 04:56:32;;;;;;;6.00;3.87;;;;;;;-145.69;100.00;71412.34;5073434;28;20198;-79
2022/06/07 04:59:08;;;;;;;6.85;4.03;;;;;;;-145.69;100.00;71394.44;5073459;28;20313;-79
2022/06/07 05:01:39;;;;;;;5.47;3.95;;;;;;;-145.69;100.00;71386.47;5073472;28;20276;-79
2022/06/07 05:04:07;;;;;;;4.90;3.55;;;;;;;-145.69;100.00;71368.56;5073483;28;20203;-79
2022/06/07 05:06:35;;;;;;;5.15;3.85;;;;;;;-145.69;100.00;71374.53;5073149;28;20202;-78
2022/06/07 05:09:05;;;;;;;6.93;3.90;;;;;;;-145.69;100.00;71354.63;5073240;28;20277;-78
2022/06/07 05:11:36;;;;;;;5.22;3.40;;;;;;;-145.69;100.00;71334.75;5087045;28;20201;-79
2022/06/07 05:14:09;;;;;;;3.53;3.00;;;;;;;-145.69;100.00;71326.78;5093281;28;20657;-79
2022/06/07 05:16:41;;;;;;;3.88;2.75;;;;;;;-145.69;100.00;71318.81;5093615;28;20208;-78
2022/06/07 05:19:10;;;;;;;2.80;2.50;;;;;;;-145.69;100.00;71326.78;5093134;28;20684;-78
2022/06/07 05:21:37;;;;;;;4.30;2.03;;;;;;;-145.69;100.00;71358.63;5092610;28;20297;-79
2022/06/07 05:24:06;;;;;;;2.30;1.98;;;;;;;-145.69;100.00;71366.56;5080166;28;20281;-79
2022/06/07 05:26:39;;;;;;;3.30;2.40;;;;;;;-145.69;100.00;71376.53;5093126;28;20645;-79
2022/06/07 05:29:07;;;;;;;5.10;3.30;;;;;;;-145.69;100.00;71374.53;5092913;28;20206;-79
2022/06/07 05:31:33;;;;;;;4.90;3.65;;;;;;;-145.69;100.00;71372.53;5093184;28;20194;-79
2022/06/07 05:34:01;;;;;;;5.47;3.58;;;;;;;-145.69;100.00;71378.50;5092822;28;20538;-78
2022/06/07 05:36:28;;;;;;;5.78;3.80;;;;;;;-145.69;100.00;71380.50;5092686;28;20247;-78
2022/06/07 05:38:55;;;;;;;6.47;3.90;;;;;;;-145.69;100.00;71364.59;5092747;28;20592;-79
2022/06/07 05:41:24;;;;;;;6.97;3.88;;;;;;;-145.69;100.00;71356.63;5093064;28;20214;-78
2022/06/07 05:43:54;;;;;;;6.53;3.63;;;;;;;-145.69;100.00;71356.63;5093193;28;20202;-78
2022/06/07 05:46:20;;;;;;;6.57;3.92;;;;;;;-145.69;100.00;71340.72;5092899;28;20202;-78
2022/06/07 05:48:47;;;;;;;5.85;2.90;;;;;;;-145.69;100.00;71352.66;5092940;28;20251;-78
2022/06/07 05:51:15;;;;;;;4.43;3.10;;;;;;;-145.69;100.00;71326.78;5092953;28;20236;-78
2022/06/07 05:53:41;;;;;;;5.47;2.85;;;;;;;-145.69;100.00;71354.63;5093010;28;20202;-78
2022/06/07 05:56:11;;;;;;;3.40;2.83;;;;;;;-145.69;100.00;71312.84;5093094;28;20660;-78
2022/06/07 05:58:38;;;;;;;6.72;3.47;;;;;;;-145.69;100.00;71275.03;5093625;28;20235;-79
2022/06/07 06:01:07;;;;;;;5.15;2.85;;;;;;;-145.69;100.00;71249.19;5096851;28;20232;-79
2022/06/07 06:03:35;;;;;;;3.53;2.40;;;;;;;-145.69;100.00;71239.22;5097069;28;20193;-79
2022/06/07 06:06:02;;;;;;;2.85;2.05;;;;;;;-145.69;100.00;71215.34;5096999;28;20202;-78
2022/06/07 06:11:15;;;;;;;2.20;2.00;;;;;;;-145.69;100.00;71163.63;5096865;28;20336;-79
2022/06/07 06:13:42;;;;;;;3.20;2.30;;;;;;;-145.69;100.00;71103.94;5096418;28;20436;-79
2022/06/07 06:16:14;;;;;;;2.40;1.83;;;;;;;-145.69;100.00;71111.88;5097392;28;20205;-80
2022/06/07 06:18:40;;;;;;;3.45;2.40;;;;;;;-145.69;100.00;71141.72;5096903;28;20256;-79
2022/06/07 06:21:08;;;;;;;2.42;1.90;;;;;;;-145.69;100.00;71103.94;5094054;28;20226;-80
2022/06/07 06:23:36;;;;;;;2.45;2.10;;;;;;;-145.69;100.00;71072.09;5076305;28;20214;-80
2022/06/07 06:26:07;;;;;;;5.70;2.38;;;;;;;-145.69;100.00;71070.09;5076084;28;20218;-79
2022/06/07 06:28:33;;;;;;;3.15;2.45;;;;;;;-145.69;100.00;71048.22;5076498;28;20347;-80
2022/06/07 06:31:03;;;;;;;5.03;2.30;;;;;;;-145.69;100.00;71040.25;5076301;28;20210;-79
2022/06/07 06:33:30;;;;;;;5.05;2.50;;;;;;;-145.69;100.00;71048.22;5076170;28;20195;-79
2022/06/07 06:35:58;;;;;;;3.05;2.67;;;;;;;-145.69;100.00;71095.97;5076284;28;20564;-79
2022/06/07 06:38:27;;;;;;;3.50;2.63;;;;;;;-145.69;100.00;71066.13;5075611;28;20700;-79
2022/06/07 06:40:55;;;;;;;3.65;2.80;;;;;;;-145.69;100.00;71088.00;5075773;28;20230;-80
2022/06/07 06:43:22;;;;;;;4.03;2.45;;;;;;;-145.69;100.00;71127.81;5076091;28;20289;-79
2022/06/07 06:45:48;;;;;;;5.95;2.80;;;;;;;-145.69;100.00;71133.78;5076015;28;20199;-79
2022/06/07 06:48:16;;;;;;;4.05;2.85;;;;;;;-145.69;100.00;71123.81;5075786;28;20253;-80
2022/06/07 06:50:43;;;;;;;2.70;2.40;;;;;;;-145.69;100.00;71169.59;5075297;28;20203;-80
2022/06/07 06:53:09;;;;;;;4.95;2.30;;;;;;;-145.69;100.00;71111.88;5075634;28;20203;-80
2022/06/07 06:55:36;;;;;;;3.22;2.65;;;;;;;-145.69;100.00;71133.78;5075939;28;20576;-80
2022/06/07 06:58:04;;;;;;;2.17;1.70;;;;;;;-145.69;100.00;71151.69;5075699;28;20207;-79
2022/06/07 07:00:31;;;;;;;3.20;1.83;;;;;;;-145.69;100.00;71107.91;5075443;28;20240;-80
2022/06/07 07:02:57;;;;;;;4.65;1.70;;;;;;;-145.69;100.00;71050.22;5075496;28;20206;-80
2022/06/07 07:05:24;;;;;;;2.65;1.58;;;;;;;-145.69;100.00;71048.22;5075479;28;20206;-80
2022/06/07 07:07:50;;;;;;;5.10;1.85;;;;;;;-145.69;100.00;70992.50;5075623;28;20214;-80
2022/06/07 07:10:17;;;;;;;2.75;1.50;;;;;;;-145.69;100.00;70984.53;5078426;28;20190;-80
2022/06/07 07:12:43;;;;;;;4.72;1.40;;;;;;;-145.69;100.00;70970.63;5095718;28;20208;-80
2022/06/07 07:15:13;;;;;;;2.58;1.67;;;;;;;-145.69;100.00;71042.25;5095678;28;20596;-80
2022/06/07 07:17:39;;;;;;;2.55;1.40;;;;;;;-145.69;100.00;71048.22;5095591;28;20202;-80
2022/06/07 07:20:07;;;;;;;3.10;1.20;;;;;;;-145.69;100.00;71048.22;5095484;28;20268;-81
2022/06/07 07:22:35;;;;;;;2.05;1.10;;;;;;;-145.69;100.00;71056.16;5095663;28;20205;-81
2022/06/07 07:25:02;;;;;;;2.00;1.30;;;;;;;-145.69;100.00;71032.28;5095617;28;20233;-80
2022/06/07 07:27:29;;;;;;;3.97;1.20;;;;;;;-145.69;99.87;70980.56;5095354;28;20658;-81
2022/06/07 07:29:55;;;;;;;2.88;1.00;;;;;;;-145.69;93.79;70948.72;5095614;28;20297;-81
2022/06/07 07:32:23;;;;;;;2.75;1.35;;;;;;;-145.69;97.08;70877.09;5095254;28;20679;-82
2022/06/07 07:34:50;;;;;;;2.78;1.10;;;;;;;-145.69;95.67;70944.75;5095271;28;20568;-81
2022/06/07 07:37:17;;;;;;;1.33;0.88;;;;;;;-145.69;99.80;71062.13;5095209;28;20230;-82
2022/06/07 07:39:44;;;;;;;3.97;1.40;;;;;;;-145.69;100.00;71074.09;5095066;28;20225;-82
2022/06/07 07:42:10;;;;;;;1.83;1.00;;;;;;;-145.69;100.00;71064.13;5095288;28;20194;-82
2022/06/07 07:44:37;;;;;;;1.25;0.98;;;;;;;-145.69;100.00;71072.09;5095316;28;20202;-83
2022/06/07 07:47:04;;;;;;;3.40;1.20;;;;;;;-145.69;100.00;71076.06;5095126;28;20604;-83
2022/06/07 07:49:32;;;;;;;2.50;1.23;;;;;;;-145.69;100.00;71088.00;5095339;28;20201;-83
2022/06/07 07:51:58;;;;;;;3.08;1.63;;;;;;;-145.69;100.00;71074.09;5095232;28;20225;-83
2022/06/07 07:54:26;;;;;;;1.90;1.30;;;;;;;-145.69;100.00;71078.06;5095197;28;20221;-83
2022/06/07 07:56:55;;;;;;;1.90;1.20;;;;;;;-145.69;98.41;71099.94;5095121;28;20209;-83
2022/06/07 07:59:22;;;;;;;1.80;1.00;;;;;;;-145.69;100.00;71050.22;5094946;28;20233;-83
2022/06/07 08:01:50;;;;;;;1.88;1.00;;;;;;;-145.69;98.08;70932.81;5094717;28;20233;-82
2022/06/07 08:04:17;;;;;;;3.13;1.15;;;;;;;-145.69;95.66;70813.44;5094820;28;20198;-82
2022/06/07 08:06:45;;;;;;;3.30;1.15;;;;;;;-145.69;92.91;70839.31;5094900;28;20201;-82
2022/06/07 08:09:12;;;;;;;2.55;1.05;;;;;;;-145.69;85.91;70809.47;5094871;28;20205;-84
2022/06/07 08:11:40;;;;;;;3.47;1.02;;;;;;;-145.69;83.37;70835.31;5094578;28;20198;-83
2022/06/07 08:14:10;;;;;;;1.17;1.00;;;;;;;-145.69;84.09;70920.88;5083525;28;20256;-83
2022/06/07 08:16:37;;;;;;;2.15;1.10;;;;;;;-145.69;92.35;71016.38;5074323;28;20206;-81
2022/06/07 08:19:04;;;;;;;1.92;1.15;;;;;;;-145.69;100.00;71111.88;5074259;28;20211;-82
2022/06/07 08:21:31;;;;;;;2.88;1.20;;;;;;;-145.69;100.00;71127.81;5073219;28;20631;-80
2022/06/07 08:23:59;;;;;;;2.33;1.08;;;;;;;-145.69;100.00;71093.97;5074011;28;20207;-80
2022/06/07 08:26:27;;;;;;;1.63;1.02;;;;;;;-145.69;100.00;71111.88;5073932;28;20195;-80
2022/06/07 08:28:54;;;;;;;2.25;1.40;;;;;;;-145.69;100.00;71050.22;5073801;28;20603;-79
2022/06/07 08:31:26;;;;;;;1.58;1.30;;;;;;;-145.69;93.84;71010.41;5074024;28;20210;-82
2022/06/07 08:39:22;;;;;;;1.15;1.00;;;;;;;-145.69;88.03;70932.81;5073716;28;20193;-79
2022/06/07 08:41:51;;;;;;;1.75;0.95;;;;;;;-145.69;89.21;70914.91;5073760;28;20234;-80
2022/06/07 08:44:23;;;;;;;2.33;1.02;;;;;;;-145.69;88.71;70904.97;5073777;28;20195;-79
2022/06/07 08:46:52;;;;;;;1.25;0.90;;;;;;;-145.69;97.32;70956.69;5073526;28;20669;-79
2022/06/07 08:49:19;;;;;;;3.60;1.00;;;;;;;-145.69;89.92;70966.63;5073696;28;20225;-80
2022/06/07 08:51:50;;;;;;;3.67;1.33;;;;;;;-145.69;88.64;70904.97;5073193;28;20198;-80
2022/06/07 08:54:26;;;;;;;0.73;0.70;;;;;;;-145.69;95.70;70861.19;5073366;28;20206;-81
2022/06/07 08:56:53;;;;;;;2.30;1.13;;;;;;;-145.69;87.97;70891.03;5073196;28;20569;-82
2022/06/07 08:59:22;;;;;;;1.65;0.98;;;;;;;-145.69;88.53;70829.34;5073388;28;20241;-79
2022/06/07 09:02:12;;;;;;;2.90;1.00;;;;;;;-145.69;85.89;70801.50;5073150;28;20353;-77
2022/06/07 09:04:40;;;;;;;2.78;0.90;;;;;;;-145.69;79.38;70803.50;5073642;28;20194;-78
2022/06/07 09:07:14;;;;;;;0.95;0.80;;;;;;;-145.69;77.63;70823.38;5073199;28;20593;-78
2022/06/07 09:12:33;;;;;;;1.15;0.90;;;;;;;-145.69;75.57;70829.34;5073258;28;20569;-77
2022/06/07 09:15:09;;;;;;;2.15;0.90;;;;;;;-145.69;77.32;70805.47;5071512;28;20596;-79
2022/06/07 09:17:38;;;;;;;0.80;0.80;;;;;;;-145.69;78.92;70875.13;5071245;28;20202;-77
2022/06/07 09:20:07;;;;;;;3.30;0.90;;;;;;;-145.69;80.02;70795.53;5071320;28;20258;-76
2022/06/07 09:22:49;;;;;;;5.75;0.98;;;;;;;-145.69;74.83;70787.56;5071294;28;20209;-78
2022/06/07 09:25:22;;;;;;;4.25;1.00;;;;;;;-145.69;76.13;70799.50;5071010;28;20202;-79
2022/06/07 09:27:49;;;;;;;1.38;1.00;;;;;;;-145.69;73.84;70761.72;5086630;28;20225;-78
2022/06/07 09:30:24;;;;;;;1.13;0.88;;;;;;;-145.69;73.06;70767.69;5072659;28;20201;-78
2022/06/07 09:32:51;;;;;;;4.07;1.00;;;;;;;-145.69;75.14;70706.00;5072975;28;20565;-77
2022/06/07 09:35:23;;;;;;;1.23;0.77;;;;;;;-145.69;66.33;70678.16;5072935;28;20294;-79
2022/06/07 09:37:53;;;;;;;3.00;0.70;;;;;;;-145.69;67.50;70614.47;5072892;28;20288;-81
2022/06/07 09:40:26;;;;;;;1.98;0.80;;;;;;;-145.69;67.70;70564.75;5073341;28;20222;-78
2022/06/07 09:42:58;;;;;;;1.20;0.70;;;;;;;-145.69;63.34;70620.44;5072884;28;20462;-78
2022/06/07 09:45:29;;;;;;;1.38;0.75;;;;;;;-145.69;65.83;70636.38;5072991;28;20502;-79
2022/06/07 09:47:56;;;;;;;0.60;0.52;;;;;;;-145.69;72.19;70590.63;5072792;28;20590;-78
2022/06/07 09:50:26;;;;;;;0.70;0.50;;;;;;;-145.69;62.45;70530.94;5073053;28;20210;-78
2022/06/07 09:52:55;;;;;;;3.97;0.60;;;;;;;-145.69;63.27;70503.06;5072932;28;20199;-80
2022/06/07 09:55:32;;;;;;;2.72;0.90;;;;;;;-145.69;65.30;70347.91;5072990;28;20238;-81
2022/06/07 09:58:14;;;;;;;0.40;0.40;;;;;;;-145.69;57.56;70407.59;5072777;28;20557;-79
2022/06/07 10:00:48;;;;;;;0.80;0.50;;;;;;;-145.69;66.07;70602.56;5072666;28;20222;-79
2022/06/07 10:03:29;;;;;;;1.10;0.60;;;;;;;-145.69;70.28;70614.47;5072918;28;20203;-79
2022/06/07 10:06:09;;;;;;;0.80;0.60;;;;;;;-145.69;67.55;70658.25;5072894;28;20311;-78
2022/06/07 10:08:55;;;;;;;1.10;0.73;;;;;;;-145.69;71.26;70692.06;5070407;28;20234;-78
2022/06/07 10:11:31;;;;;;;1.17;0.60;;;;;;;-145.69;65.43;70606.53;5079828;28;20499;-78
2022/06/07 10:14:18;;;;;;;1.15;0.60;;;;;;;-145.69;66.78;70642.34;5070675;28;20225;-78
2022/06/07 10:16:52;;;;;;;0.95;0.60;;;;;;;-145.69;63.20;70654.28;5068791;28;20216;-78
2022/06/07 10:19:32;;;;;;;1.65;0.70;;;;;;;-145.69;64.34;70642.34;5072617;28;20534;-80
2022/06/07 10:22:14;;;;;;;1.15;0.70;;;;;;;-145.69;66.66;70650.28;5071965;28;20253;-79
2022/06/07 10:24:48;;;;;;;1.02;0.60;;;;;;;-145.69;66.16;70666.22;5072462;28;20665;-78
2022/06/07 10:27:22;;;;;;;1.92;0.80;;;;;;;-145.69;67.19;70690.09;5072418;28;20568;-80
2022/06/07 10:30:03;;;;;;;1.00;0.60;;;;;;;-145.69;65.79;70656.25;5072449;28;20526;-78
2022/06/07 10:32:42;;;;;;;1.35;0.90;;;;;;;-145.69;64.09;70642.34;5068789;28;20661;-79
2022/06/07 10:35:18;;;;;;;2.50;0.70;;;;;;;-145.69;66.12;70674.16;5070506;28;20202;-78
2022/06/07 10:37:58;;;;;;;1.60;0.82;;;;;;;-145.69;69.17;70662.22;5072208;28;20235;-78
2022/06/07 10:40:31;;;;;;;1.52;0.85;;;;;;;-145.69;63.66;70678.16;5072537;28;20230;-78
2022/06/07 10:43:03;;;;;;;1.23;0.82;;;;;;;-145.69;69.17;70725.91;5072257;28;20703;-77
2022/06/07 10:45:34;;;;;;;1.33;0.70;;;;;;;-145.69;69.36;70670.19;5073552;28;20454;-78
2022/06/07 10:48:07;;;;;;;1.48;0.60;;;;;;;-145.69;62.86;70606.53;5075964;28;20561;-78
2022/06/07 10:50:38;;;;;;;2.28;0.73;;;;;;;-145.69;63.41;70600.56;5074821;28;20194;-79
2022/06/07 10:53:09;;;;;;;0.60;0.55;;;;;;;-145.69;63.68;70598.56;5075946;28;20573;-81
2022/06/07 10:55:40;;;;;;;2.00;0.90;;;;;;;-145.69;62.45;70554.81;5075905;28;20206;-80
2022/06/07 10:58:28;;;;;;;2.92;0.70;;;;;;;-145.69;64.05;70542.88;5075900;28;20203;-79
2022/06/07 11:00:59;;;;;;;0.60;0.60;;;;;;;-145.69;63.12;70503.06;5075461;28;20258;-80
2022/06/07 11:03:39;;;;;;;1.20;0.55;;;;;;;-145.69;62.17;70451.34;5075797;28;20199;-78
2022/06/07 11:09:20;;;;;;;2.78;0.70;;;;;;;-145.69;64.85;70393.66;5075655;28;20329;-78
2022/06/07 11:11:49;;;;;;;1.65;0.55;;;;;;;-145.69;57.70;70339.94;5090974;28;20194;-78
2022/06/07 11:14:38;;;;;;;0.85;0.73;;;;;;;-145.69;60.14;70341.94;5095569;28;20652;-80
2022/06/07 11:17:18;;;;;;;0.50;0.50;;;;;;;-145.69;57.40;70272.31;5095528;28;20730;-79
2022/06/07 11:19:47;;;;;;;1.13;0.57;;;;;;;-145.69;59.91;70250.44;5095423;28;20205;-78
2022/06/07 11:22:18;;;;;;;3.58;0.73;;;;;;;-145.69;56.20;70296.19;5095183;28;20612;-78
2022/06/07 11:24:59;;;;;;;1.63;0.60;;;;;;;-145.69;62.68;70419.53;5095328;28;20718;-78
2022/06/07 11:27:27;;;;;;;0.90;0.50;;;;;;;-145.69;58.19;70337.97;5095406;28;20194;-78
2022/06/07 11:30:21;;;;;;;1.27;0.80;;;;;;;-145.69;61.69;70198.72;5095261;28;20205;-78
2022/06/07 11:32:55;;;;;;;0.95;0.60;;;;;;;-145.69;52.48;70236.50;5095380;28;20264;-78
2022/06/07 11:35:47;;;;;;;1.67;0.70;;;;;;;-145.69;52.93;70141.03;5095146;28;20624;-78
2022/06/07 11:38:25;;;;;;;1.67;0.60;;;;;;;-145.69;55.71;70216.63;5094642;28;20233;-78
2022/06/07 11:41:36;;;;;;;0.98;0.50;;;;;;;-145.69;53.72;70204.69;5095275;28;20607;-78
2022/06/07 11:43:58;;;;;;;0.82;0.65;;;;;;;-145.69;54.23;70198.72;5094910;28;20197;-79
2022/06/07 11:46:39;;;;;;;0.63;0.50;;;;;;;-145.69;58.63;70357.84;5095071;28;20202;-78
2022/06/07 11:49:32;;;;;;;1.48;0.50;;;;;;;-145.69;63.59;70485.16;5094873;28;20205;-77
2022/06/07 11:52:00;;;;;;;0.82;0.60;;;;;;;-145.69;66.55;70421.50;5094940;28;20201;-78